Time;durP1;ratioP1;P1;durP2;ratioP2;P2;SDS_P1;SDS_P2;PMS_P1;PMS_P2;Temp;Humidity;BMP_temperature;BMP_pressure;BME280_temperature;BME280_humidity;BME280_pressure;Samples;Min_cycle;Max_cycle;Signal;HPM_P1;HPM_P2
2021/05/13 00:01:20;;;;;;;5.00;1.50;;;11.90;89.70;;;;;;5083617;28;20048;-83
2021/05/13 00:03:47;;;;;;;4.55;1.75;;;11.90;89.80;;;;;;5080458;28;20350;-81
2021/05/13 00:06:16;;;;;;;6.57;1.50;;;11.90;89.80;;;;;;5063169;28;20058;-83
2021/05/13 00:08:43;;;;;;;3.35;1.98;;;12.00;89.40;;;;;;5064763;28;20071;-82
2021/05/13 00:11:12;;;;;;;4.85;1.48;;;12.00;89.30;;;;;;5054260;28;20047;-85
2021/05/13 00:13:40;;;;;;;5.35;1.65;;;11.90;89.60;;;;;;5097633;28;20040;-84
2021/05/13 00:16:08;;;;;;;4.05;2.17;;;12.00;89.70;;;;;;5062493;28;20047;-82
2021/05/13 00:18:36;;;;;;;4.50;1.73;;;11.90;89.80;;;;;;5064876;28;20089;-81
2021/05/13 00:21:04;;;;;;;3.53;1.95;;;11.90;89.80;;;;;;5099418;28;20043;-81
2021/05/13 00:23:33;;;;;;;6.05;2.22;;;12.00;89.90;;;;;;5098947;28;20047;-83
2021/05/13 00:26:04;;;;;;;6.90;2.40;;;12.10;89.60;;;;;;5080259;28;20067;-83
2021/05/13 00:28:31;;;;;;;5.25;2.53;;;12.10;89.30;;;;;;5082463;28;20220;-82
2021/05/13 00:30:59;;;;;;;6.45;2.95;;;12.10;89.20;;;;;;5100198;28;20813;-85
2021/05/13 00:33:26;;;;;;;4.78;2.03;;;12.10;89.20;;;;;;5078571;28;20044;-83
2021/05/13 00:36:02;;;;;;;9.88;2.50;;;12.20;89.20;;;;;;5063646;28;20056;-84
2021/05/13 00:38:29;;;;;;;5.60;2.05;;;12.10;89.20;;;;;;5097730;28;20052;-84
2021/05/13 00:40:56;;;;;;;6.03;2.83;;;12.10;89.30;;;;;;5062499;28;20071;-84
2021/05/13 00:43:24;;;;;;;5.35;2.45;;;12.00;89.50;;;;;;5078368;28;20044;-84
2021/05/13 00:45:58;;;;;;;5.28;2.15;;;11.90;89.60;;;;;;5080854;28;20052;-84
2021/05/13 00:48:32;;;;;;;4.80;2.25;;;12.00;89.50;;;;;;5096957;28;20119;-82
2021/05/13 00:50:59;;;;;;;7.28;2.28;;;11.90;89.30;;;;;;5060451;28;20052;-84
2021/05/13 00:53:27;;;;;;;5.20;2.38;;;11.80;89.60;;;;;;5079992;28;20150;-82
2021/05/13 00:55:55;;;;;;;4.45;2.40;;;11.70;90.20;;;;;;5073186;28;20401;-84
2021/05/13 00:58:26;;;;;;;5.60;2.42;;;11.70;90.10;;;;;;5084592;28;20047;-85
2021/05/13 01:01:03;;;;;;;5.40;2.80;;;11.70;90.00;;;;;;5088970;28;20252;-82
2021/05/13 01:03:32;;;;;;;7.50;2.33;;;11.60;89.90;;;;;;5078715;28;20040;-83
2021/05/13 01:06:00;;;;;;;7.97;2.40;;;11.40;90.60;;;;;;5093649;28;20071;-84
2021/05/13 01:08:29;;;;;;;4.15;2.25;;;11.40;90.90;;;;;;5097028;28;20056;-82
2021/05/13 01:10:57;;;;;;;6.35;2.53;;;11.30;91.20;;;;;;5097313;28;20514;-85
2021/05/13 01:13:27;;;;;;;5.97;2.85;;;11.20;91.50;;;;;;5095295;28;20053;-83
2021/05/13 01:16:08;;;;;;;2.83;1.85;;;11.20;91.40;;;;;;5095883;28;20063;-83
2021/05/13 01:18:36;;;;;;;5.38;2.70;;;11.30;91.30;;;;;;5094700;28;20040;-82
2021/05/13 01:21:04;;;;;;;3.78;2.40;;;11.30;91.20;;;;;;5090180;28;20060;-83
2021/05/13 01:23:32;;;;;;;7.32;2.33;;;11.40;91.10;;;;;;5102343;28;20104;-83
2021/05/13 01:25:59;;;;;;;6.05;2.20;;;11.30;91.00;;;;;;5117144;28;20068;-83
2021/05/13 01:28:28;;;;;;;6.40;2.17;;;11.40;90.90;;;;;;5086252;28;20039;-82
2021/05/13 01:30:57;;;;;;;3.45;1.60;;;11.40;90.90;;;;;;5119449;28;20088;-84
2021/05/13 01:33:26;;;;;;;5.05;1.92;;;11.40;90.80;;;;;;5119506;28;20062;-82
2021/05/13 01:35:54;;;;;;;6.07;2.33;;;11.50;90.70;;;;;;5099376;28;20070;-84
2021/05/13 01:38:23;;;;;;;5.50;2.25;;;11.60;90.20;;;;;;5100450;28;20062;-84
2021/05/13 01:40:53;;;;;;;8.80;2.25;;;11.50;90.60;;;;;;5117480;28;20047;-83
2021/05/13 01:43:20;;;;;;;3.75;1.90;;;11.50;90.30;;;;;;5116180;28;20047;-82
2021/05/13 01:45:47;;;;;;;3.13;1.83;;;11.60;90.10;;;;;;5116003;28;20051;-83
2021/05/13 01:48:14;;;;;;;3.78;2.25;;;11.70;90.10;;;;;;5098975;28;20100;-83
2021/05/13 01:50:42;;;;;;;5.05;2.15;;;11.60;90.20;;;;;;5083666;28;20418;-83
2021/05/13 01:53:11;;;;;;;4.35;2.35;;;11.60;90.30;;;;;;5103738;28;20265;-82
2021/05/13 01:55:41;;;;;;;5.85;2.55;;;11.60;90.10;;;;;;5117601;28;20284;-82
2021/05/13 01:58:09;;;;;;;5.85;2.55;;;11.70;89.80;;;;;;5082518;28;20277;-83
2021/05/13 02:00:39;;;;;;;;;;;11.60;89.90;;;;;;5097997;28;20060;-85
2021/05/13 02:03:08;;;;;;;3.03;1.67;;;11.60;90.20;;;;;;5099429;28;19923;-84
2021/05/13 02:05:35;;;;;;;8.13;2.53;;;11.60;89.80;;;;;;5118238;28;20031;-86
2021/05/13 02:08:08;;;;;;;6.93;2.15;;;11.60;89.60;;;;;;5082240;28;20054;-84
2021/05/13 02:10:35;;;;;;;7.38;2.08;;;11.50;89.60;;;;;;5099132;28;20052;-84
2021/05/13 02:13:05;;;;;;;5.70;2.47;;;11.60;89.60;;;;;;5084742;28;20048;-86
2021/05/13 02:15:33;;;;;;;5.28;2.03;;;11.50;89.70;;;;;;5102268;28;20161;-86
2021/05/13 02:18:00;;;;;;;3.35;1.90;;;11.40;89.80;;;;;;5102554;28;20055;-86
2021/05/13 02:20:43;;;;;;;3.72;1.95;;;11.50;89.50;;;;;;5083216;28;20044;-82
2021/05/13 02:23:10;;;;;;;3.95;1.90;;;11.50;89.20;;;;;;5117362;28;20146;-85
2021/05/13 02:25:39;;;;;;;4.45;2.10;;;11.40;89.20;;;;;;5100054;28;20078;-84
2021/05/13 02:28:12;;;;;;;3.30;1.92;;;11.30;89.20;;;;;;5102952;28;20300;-84
2021/05/13 02:30:45;;;;;;;3.90;2.17;;;11.30;89.70;;;;;;5103820;28;20039;-83
2021/05/13 02:33:13;;;;;;;3.78;2.10;;;11.30;89.60;;;;;;5104529;27;20047;-84
2021/05/13 02:35:41;;;;;;;4.63;2.53;;;11.30;89.50;;;;;;5121408;27;20393;-83
2021/05/13 02:38:08;;;;;;;3.95;1.85;;;11.30;89.50;;;;;;5095295;27;20047;-85
2021/05/13 02:40:35;;;;;;;6.22;1.83;;;11.40;89.10;;;;;;5103711;28;20046;-83
2021/05/13 02:43:03;;;;;;;9.52;2.42;;;11.40;89.20;;;;;;5087494;28;20036;-81
2021/05/13 02:45:31;;;;;;;2.90;1.83;;;11.50;88.90;;;;;;5102194;28;20119;-83
2021/05/13 02:47:59;;;;;;;7.85;2.28;;;11.50;88.80;;;;;;5119868;27;20039;-82
2021/05/13 02:50:27;;;;;;;4.93;1.90;;;11.50;88.50;;;;;;5102911;28;20244;-82
2021/05/13 02:52:55;;;;;;;7.65;2.40;;;11.40;88.40;;;;;;5085229;28;20277;-86
2021/05/13 02:55:24;;;;;;;5.22;2.22;;;11.40;88.60;;;;;;5102608;28;20047;-85
2021/05/13 02:57:51;;;;;;;4.57;2.58;;;11.40;89.00;;;;;;5119564;28;20047;-84
2021/05/13 03:00:25;;;;;;;6.47;2.35;;;11.40;88.80;;;;;;5101052;28;20081;-83
2021/05/13 03:02:55;;;;;;;7.05;2.90;;;11.40;88.90;;;;;;5085547;28;20059;-85
2021/05/13 03:05:26;;;;;;;3.47;1.92;;;11.30;88.90;;;;;;5121057;27;20047;-83
2021/05/13 03:07:55;;;;;;;;;;;11.40;88.90;;;;;;5121908;27;20056;-85
2021/05/13 03:10:25;;;;;;;5.35;2.03;;;11.40;89.10;;;;;;5095805;28;19922;-86
2021/05/13 03:12:54;;;;;;;;;;;11.40;89.00;;;;;;5105921;28;20346;-84
2021/05/13 03:15:21;;;;;;;4.88;2.08;;;11.30;89.20;;;;;;5087230;28;19961;-83
2021/05/13 03:17:50;;;;;;;8.20;1.95;;;11.30;89.30;;;;;;5115142;27;20088;-82
2021/05/13 03:20:24;;;;;;;5.78;1.83;;;11.20;89.90;;;;;;5100315;28;20480;-84
2021/05/13 03:22:55;;;;;;;6.38;2.85;;;11.20;89.70;;;;;;5101248;28;20047;-83
2021/05/13 03:25:28;;;;;;;4.15;1.80;;;11.30;89.80;;;;;;5101167;28;20055;-82
2021/05/13 03:28:06;;;;;;;7.32;2.58;;;11.40;89.20;;;;;;5104115;28;20125;-82
2021/05/13 03:30:36;;;;;;;6.97;2.38;;;11.40;88.70;;;;;;5103604;28;20076;-82
2021/05/13 03:33:04;;;;;;;4.07;2.17;;;11.40;88.60;;;;;;5103516;28;20283;-85
2021/05/13 03:35:36;;;;;;;4.95;2.40;;;11.40;88.50;;;;;;5103404;28;20036;-84
2021/05/13 03:38:04;;;;;;;7.35;2.40;;;11.40;88.40;;;;;;5101166;28;20071;-83
2021/05/13 03:40:32;;;;;;;5.50;2.30;;;11.40;88.30;;;;;;5082276;28;20077;-85
2021/05/13 03:43:02;;;;;;;3.42;1.85;;;11.30;88.50;;;;;;5100444;28;20097;-85
2021/05/13 03:45:30;;;;;;;5.35;2.03;;;11.30;88.80;;;;;;5100779;28;20040;-82
2021/05/13 03:48:02;;;;;;;3.75;2.00;;;11.20;88.70;;;;;;5101358;28;20098;-82
2021/05/13 03:50:31;;;;;;;3.45;1.80;;;11.20;88.80;;;;;;5084703;28;20066;-84
2021/05/13 03:52:58;;;;;;;3.83;2.10;;;11.10;89.20;;;;;;5102482;28;20074;-84
2021/05/13 03:55:26;;;;;;;6.43;2.20;;;11.10;89.40;;;;;;5100473;28;20117;-86
2021/05/13 03:57:56;;;;;;;6.90;2.33;;;11.10;89.50;;;;;;5084361;28;20358;-82
2021/05/13 04:00:29;;;;;;;4.13;2.55;;;11.00;89.80;;;;;;5096566;28;20062;-83
2021/05/13 04:02:56;;;;;;;3.65;2.08;;;10.90;90.10;;;;;;5102398;28;20047;-82
2021/05/13 04:05:24;;;;;;;4.72;2.10;;;10.90;90.40;;;;;;5100036;28;20063;-84
2021/05/13 04:07:52;;;;;;;6.43;2.17;;;10.90;90.70;;;;;;5099469;28;20056;-84
2021/05/13 04:10:19;;;;;;;4.55;2.03;;;10.80;90.70;;;;;;5099896;28;20048;-82
2021/05/13 04:12:50;;;;;;;3.25;1.83;;;10.80;90.80;;;;;;5098488;28;20047;-84
2021/05/13 04:15:19;;;;;;;4.70;2.35;;;10.80;90.90;;;;;;5099220;28;20086;-84
2021/05/13 04:17:46;;;;;;;4.78;2.05;;;10.80;90.80;;;;;;5108342;27;20044;-85
2021/05/13 04:20:14;;;;;;;3.60;2.20;;;10.70;91.30;;;;;;5098582;28;20090;-83
2021/05/13 04:22:41;;;;;;;5.60;2.35;;;10.80;91.50;;;;;;5079283;28;20078;-84
2021/05/13 04:25:10;;;;;;;3.83;1.95;;;10.80;91.40;;;;;;5098157;28;20219;-84
2021/05/13 04:27:38;;;;;;;4.30;1.83;;;10.90;91.30;;;;;;5080326;28;20055;-83
2021/05/13 04:30:08;;;;;;;4.68;2.40;;;10.80;91.30;;;;;;5082066;28;20178;-82
2021/05/13 04:32:36;;;;;;;;;;;10.90;91.40;;;;;;5098792;28;20044;-82
2021/05/13 04:35:07;;;;;;;5.47;2.28;;;10.90;91.10;;;;;;5096128;28;19946;-83
2021/05/13 04:37:35;;;;;;;5.13;2.10;;;10.90;91.10;;;;;;5096123;28;20047;-82
2021/05/13 04:40:08;;;;;;;5.93;2.05;;;11.00;90.90;;;;;;5078414;28;20070;-82
2021/05/13 04:42:35;;;;;;;5.35;2.30;;;10.90;90.70;;;;;;5095615;28;20047;-82
2021/05/13 04:45:03;;;;;;;4.97;2.63;;;11.00;90.60;;;;;;5099501;28;20113;-81
2021/05/13 04:47:45;;;;;;;4.97;2.70;;;11.00;90.60;;;;;;5104470;27;20055;-82
2021/05/13 04:50:14;;;;;;;4.97;2.60;;;11.00;90.40;;;;;;5088010;28;20055;-82
2021/05/13 04:52:41;;;;;;;4.88;2.42;;;11.00;90.30;;;;;;5098666;28;20457;-82
2021/05/13 04:55:10;;;;;;;5.30;2.28;;;11.10;90.10;;;;;;5096607;28;20051;-84
2021/05/13 04:57:38;;;;;;;4.15;2.17;;;11.10;90.20;;;;;;5116291;27;20036;-83
2021/05/13 05:00:08;;;;;;;6.20;2.33;;;11.20;89.90;;;;;;5099196;28;20078;-83
2021/05/13 05:02:40;;;;;;;4.60;2.47;;;11.20;90.00;;;;;;5097725;28;20039;-84
2021/05/13 05:05:09;;;;;;;8.93;2.60;;;11.30;90.00;;;;;;5099986;28;20307;-82
2021/05/13 05:07:36;;;;;;;4.00;2.15;;;11.40;89.50;;;;;;5081453;28;20052;-83
2021/05/13 05:10:04;;;;;;;3.25;1.95;;;11.50;89.40;;;;;;5083131;28;20048;-82
2021/05/13 05:12:34;;;;;;;6.90;2.30;;;11.70;89.00;;;;;;5100776;28;20299;-83
2021/05/13 05:15:02;;;;;;;5.22;2.40;;;11.80;88.30;;;;;;5106237;28;20056;-82
2021/05/13 05:17:29;;;;;;;4.35;2.38;;;11.90;87.90;;;;;;5082148;28;20105;-82
2021/05/13 05:19:57;;;;;;;5.63;2.45;;;11.90;87.90;;;;;;5094644;28;20113;-85
2021/05/13 05:22:25;;;;;;;5.18;2.42;;;11.90;87.70;;;;;;5078352;28;20107;-83
2021/05/13 05:24:52;;;;;;;3.90;2.08;;;11.90;88.00;;;;;;5061594;28;20051;-84
2021/05/13 05:27:23;;;;;;;7.05;1.95;;;11.90;88.10;;;;;;5077499;28;20045;-82
2021/05/13 05:29:50;;;;;;;3.92;1.98;;;11.80;88.20;;;;;;5060498;28;20411;-83
2021/05/13 05:32:17;;;;;;;4.93;2.33;;;11.90;88.30;;;;;;5077004;28;20114;-83
2021/05/13 05:34:45;;;;;;;6.82;2.03;;;12.00;87.80;;;;;;5078237;28;20056;-84
2021/05/13 05:37:13;;;;;;;4.90;2.30;;;12.10;87.00;;;;;;5080267;28;20282;-82
2021/05/13 05:39:41;;;;;;;8.02;2.35;;;12.10;86.70;;;;;;5079175;28;20047;-82
2021/05/13 05:42:08;;;;;;;4.38;2.17;;;12.00;86.90;;;;;;5060120;28;20109;-83
2021/05/13 05:44:36;;;;;;;4.53;2.20;;;12.20;86.50;;;;;;5076790;28;20488;-85
2021/05/13 05:47:04;;;;;;;3.72;2.00;;;12.20;86.40;;;;;;5079212;28;20055;-82
2021/05/13 05:49:31;;;;;;;4.45;2.35;;;12.30;86.20;;;;;;5061260;28;20045;-82
2021/05/13 05:51:58;;;;;;;7.50;2.38;;;12.30;86.00;;;;;;5050789;28;20036;-83
2021/05/13 05:54:26;;;;;;;3.67;2.00;;;12.40;85.60;;;;;;5062043;28;20049;-82
2021/05/13 05:56:53;;;;;;;3.65;2.03;;;12.50;85.20;;;;;;5092241;28;20227;-82
2021/05/13 05:59:20;;;;;;;3.13;1.90;;;12.60;84.90;;;;;;5076771;28;20056;-83
2021/05/13 06:01:48;;;;;;;3.63;2.35;;;12.60;84.40;;;;;;5091224;28;20065;-83
2021/05/13 06:04:16;;;;;;;10.15;2.63;;;12.60;84.10;;;;;;5079768;28;20083;-82
2021/05/13 06:06:45;;;;;;;3.30;2.10;;;12.60;84.00;;;;;;5081017;28;20048;-83
2021/05/13 06:09:12;;;;;;;5.15;2.00;;;12.70;83.50;;;;;;5082152;28;20105;-83
2021/05/13 06:11:40;;;;;;;3.95;2.10;;;12.80;82.90;;;;;;5079608;28;20068;-82
2021/05/13 06:14:07;;;;;;;3.85;2.00;;;12.90;82.30;;;;;;5080283;28;20052;-84
2021/05/13 06:16:36;;;;;;;10.38;2.35;;;12.90;81.90;;;;;;5080361;28;20052;-83
2021/05/13 06:19:04;;;;;;;5.20;2.20;;;12.90;81.60;;;;;;5079389;28;20551;-83
2021/05/13 06:21:33;;;;;;;3.80;1.75;;;13.00;81.60;;;;;;5096130;28;20335;-83
2021/05/13 06:24:07;;;;;;;7.00;2.63;;;13.10;81.50;;;;;;5108124;27;20055;-82
2021/05/13 06:26:35;;;;;;;6.25;2.67;;;13.20;81.50;;;;;;5100594;28;20120;-85
2021/05/13 06:29:04;;;;;;;4.55;2.42;;;13.30;81.40;;;;;;5103289;28;20078;-81
2021/05/13 06:31:32;;;;;;;4.32;2.28;;;13.30;81.20;;;;;;5099639;28;20043;-84
2021/05/13 06:34:00;;;;;;;5.30;2.42;;;13.40;80.80;;;;;;5098950;28;20066;-83
2021/05/13 06:36:29;;;;;;;4.47;2.30;;;13.30;80.30;;;;;;5100804;28;20130;-84
2021/05/13 06:38:57;;;;;;;3.78;1.88;;;13.30;80.60;;;;;;5090188;28;20044;-84
2021/05/13 06:41:24;;;;;;;4.53;2.40;;;13.20;80.70;;;;;;5098352;28;20125;-83
2021/05/13 06:43:52;;;;;;;5.45;2.30;;;13.20;80.80;;;;;;5099930;28;20350;-82
2021/05/13 06:46:21;;;;;;;4.20;2.70;;;13.20;81.10;;;;;;5104008;28;20059;-82
2021/05/13 06:48:49;;;;;;;3.80;2.05;;;13.20;81.00;;;;;;5103693;28;20052;-82
2021/05/13 06:51:19;;;;;;;6.57;2.70;;;13.20;81.70;;;;;;5103393;28;20038;-86
2021/05/13 06:53:46;;;;;;;4.53;2.67;;;13.20;81.70;;;;;;5103505;28;20054;-82
2021/05/13 06:56:16;;;;;;;4.30;2.60;;;13.30;81.00;;;;;;5117986;27;20378;-84
2021/05/13 06:58:46;;;;;;;5.68;2.38;;;13.10;81.30;;;;;;5119771;28;20058;-83
2021/05/13 07:01:13;;;;;;;5.55;2.50;;;13.00;81.80;;;;;;5082902;28;20055;-83
2021/05/13 07:03:43;;;;;;;5.35;2.42;;;13.10;81.80;;;;;;5085509;28;20227;-83
2021/05/13 07:06:11;;;;;;;5.40;2.50;;;13.00;81.90;;;;;;5102276;28;20224;-82
2021/05/13 07:08:38;;;;;;;4.47;2.30;;;12.90;82.20;;;;;;5084059;28;20192;-84
2021/05/13 07:11:06;;;;;;;5.60;2.20;;;12.90;82.40;;;;;;5102289;28;20040;-83
2021/05/13 07:13:33;;;;;;;4.97;2.40;;;13.00;82.30;;;;;;5104580;28;20051;-83
2021/05/13 07:16:00;;;;;;;4.32;2.40;;;13.00;81.50;;;;;;5084127;28;20048;-82
2021/05/13 07:18:29;;;;;;;5.50;2.58;;;12.90;83.20;;;;;;5102718;28;20227;-82
2021/05/13 07:20:57;;;;;;;6.10;2.97;;;12.80;83.80;;;;;;5101640;28;20188;-82
2021/05/13 07:23:25;;;;;;;7.47;3.00;;;12.90;82.90;;;;;;5103685;28;20052;-84
2021/05/13 07:25:57;;;;;;;9.70;3.10;;;13.00;83.30;;;;;;5101861;28;20051;-83
2021/05/13 07:28:25;;;;;;;7.22;2.50;;;13.00;82.70;;;;;;5100115;28;20585;-82
2021/05/13 07:30:53;;;;;;;5.35;2.40;;;13.10;81.20;;;;;;5102597;28;20059;-82
2021/05/13 07:33:24;;;;;;;3.75;2.47;;;13.20;80.10;;;;;;5084633;28;20213;-84
2021/05/13 07:35:51;;;;;;;3.95;2.42;;;13.20;79.60;;;;;;5087017;28;20248;-83
2021/05/13 07:38:19;;;;;;;10.38;3.45;;;13.40;79.70;;;;;;5104202;28;20078;-83
2021/05/13 07:40:46;;;;;;;5.68;2.50;;;13.60;78.70;;;;;;5085080;28;20051;-83
2021/05/13 07:43:13;;;;;;;4.38;2.55;;;13.70;77.30;;;;;;5099308;28;20554;-83
2021/05/13 07:45:44;;;;;;;4.07;2.42;;;13.70;77.10;;;;;;5095508;28;20048;-82
2021/05/13 07:48:15;;;;;;;6.75;2.72;;;13.90;76.90;;;;;;5100366;28;20056;-83
2021/05/13 07:50:43;;;;;;;4.50;2.63;;;14.10;76.20;;;;;;5081872;28;20050;-82
2021/05/13 07:53:10;;;;;;;8.20;3.15;;;14.30;75.70;;;;;;5099818;28;20044;-82
2021/05/13 07:55:41;;;;;;;7.15;2.65;;;14.50;76.00;;;;;;5085736;28;20039;-83
2021/05/13 07:58:09;;;;;;;4.63;2.88;;;14.70;75.40;;;;;;5100833;28;20055;-84
2021/05/13 08:00:37;;;;;;;10.27;3.17;;;14.80;74.60;;;;;;5096611;28;20386;-83
